Blessing — WDI5247 — position and weather

sailwx.info

Track history (hours):
 
Tides and Currents Weather Stations Pressure Air Temp Water Temp Dewpoint Dewpoint Depression Visibility Wind Speed Wind Dir Waves Ship Positions

Blessing

Owner: Madden, James J, Seattle, WA. More information available from US FCC via Universal Licensing System and Coast Guard Vessel Documentation Center.

Last reported at 2018-May-22 18:30 UTC. Time now 2018-Jul-19 09:51 UTC.
Position N 47°44' W 122°33'.
Warning: this ship's position is 57 days out of date.

Date/timePositionNaut miles runAvg speedWind from/ knotsBaromVisibWave heightAir tempDewpointWater temp
2018-May-22 18:30N 47°44' W 122°33'  
2018-May-13 21:36N 47°36' W 122°35'1 6.1
2018-May-13 21:27N 47°35' W 122°33'3 6.2
2018-May-13 21:01N 47°34' W 122°30'3 6.2
2018-May-13 20:30N 47°36' W 122°27'3 5.4
2018-May-13 19:59N 47°39' W 122°28'1 2.7
2018-May-13 19:30N 47°40' W 122°29'3 5.3
2018-May-13 19:00N 47°43' W 122°30'2 3.5
2018-May-13 18:31N 47°43' W 122°32'  
Track history (hours):
 
Tides and Currents Weather Stations Pressure Air Temp Water Temp Dewpoint Dewpoint Depression Visibility Wind Speed Wind Dir Waves Ship Positions

Blessing

Owner: Madden, James J, Seattle, WA. More information available from US FCC via Universal Licensing System and Coast Guard Vessel Documentation Center.

Last reported at 2018-May-22 18:30 UTC. Time now 2018-Jul-19 09:51 UTC.
Position N 47°44' W 122°33'.
Warning: this ship's position is 57 days out of date.

Date/timePositionNaut miles runAvg speedWind from/ knotsBaromVisibWave heightAir tempDewpointWater temp
2018-May-22 18:30N 47°44' W 122°33'  
2018-May-13 21:36N 47°36' W 122°35'1 6.1
2018-May-13 21:27N 47°35' W 122°33'3 6.2
2018-May-13 21:01N 47°34' W 122°30'3 6.2
2018-May-13 20:30N 47°36' W 122°27'3 5.4
2018-May-13 19:59N 47°39' W 122°28'1 2.7
2018-May-13 19:30N 47°40' W 122°29'3 5.3
2018-May-13 19:00N 47°43' W 122°30'2 3.5
2018-May-13 18:31N 47°43' W 122°32'  

Dump ship's entire track history